createdAt,value
2019-03-05T00:01:49.261Z,1.10
2019-03-05T00:04:23.338Z,1.35
2019-03-05T00:06:55.925Z,1.10
2019-03-05T00:09:27.691Z,1.25
2019-03-05T00:11:57.675Z,0.60
2019-03-05T00:14:28.572Z,0.80
2019-03-05T00:16:58.271Z,0.70
2019-03-05T00:19:34.882Z,0.70
2019-03-05T00:22:05.514Z,0.80
2019-03-05T00:24:59.895Z,0.75
2019-03-05T00:27:30.667Z,0.90
2019-03-05T00:30:31.503Z,0.78
2019-03-05T00:33:25.203Z,0.80
2019-03-05T00:36:09.799Z,0.65
2019-03-05T00:38:56.799Z,0.90
2019-03-05T00:41:50.690Z,1.00
2019-03-05T00:44:41.000Z,0.70
2019-03-05T00:47:18.624Z,0.90
2019-03-05T00:50:03.395Z,0.90
2019-03-05T00:52:42.043Z,0.80
2019-03-05T00:55:18.288Z,1.12
2019-03-05T00:57:59.569Z,0.70
2019-03-05T01:00:52.440Z,0.90
2019-03-05T01:03:52.470Z,0.93
2019-03-05T01:06:27.381Z,0.80
2019-03-05T01:09:00.111Z,0.82
2019-03-05T01:11:30.950Z,0.93
2019-03-05T01:14:01.136Z,0.95
2019-03-05T01:16:32.988Z,0.82
2019-03-05T01:19:02.845Z,0.98
2019-03-05T01:21:32.653Z,1.37
2019-03-05T01:24:02.352Z,1.05
2019-03-05T01:26:32.315Z,0.93
2019-03-05T01:29:02.166Z,0.90
2019-03-05T01:31:33.765Z,1.45
2019-03-05T01:34:23.490Z,0.90
2019-03-05T01:36:54.835Z,0.90
2019-03-05T01:39:29.017Z,0.90
2019-03-05T01:41:58.951Z,0.70
2019-03-05T01:44:28.714Z,1.00
2019-03-05T01:46:58.406Z,1.20
2019-03-05T01:49:28.127Z,1.42
2019-03-05T01:51:58.127Z,1.10
2019-03-05T01:54:28.311Z,1.17
2019-03-05T01:57:00.546Z,1.10
2019-03-05T01:59:30.267Z,1.10
2019-03-05T02:02:00.235Z,0.90
2019-03-05T02:04:30.086Z,1.00
2019-03-05T02:06:59.788Z,1.00
2019-03-05T02:09:30.786Z,0.90
2019-03-05T02:12:00.904Z,0.80
2019-03-05T02:14:30.749Z,0.85
2019-03-05T02:17:00.484Z,1.40
2019-03-05T02:19:40.972Z,1.02
2019-03-05T02:22:23.786Z,0.95
2019-03-05T02:25:13.616Z,1.00
2019-03-05T02:27:58.235Z,1.20
2019-03-05T02:31:23.411Z,1.20
2019-03-05T02:34:14.380Z,1.02
2019-03-05T02:37:08.360Z,1.15
2019-03-05T02:39:42.207Z,1.10
2019-03-05T02:42:32.870Z,1.22
2019-03-05T02:45:14.870Z,0.80
2019-03-05T02:48:38.111Z,1.02
2019-03-05T02:51:31.721Z,0.65
2019-03-05T02:54:38.163Z,0.93
2019-03-05T02:57:12.608Z,0.90
2019-03-05T02:59:46.270Z,0.80
2019-03-05T03:02:23.263Z,0.60
2019-03-05T03:04:58.333Z,0.90
2019-03-05T03:07:28.724Z,0.65
2019-03-05T03:10:12.863Z,1.12
2019-03-05T03:12:43.615Z,0.90
2019-03-05T03:15:13.827Z,0.70
2019-03-05T03:17:43.626Z,0.93
2019-03-05T03:20:14.857Z,1.15
2019-03-05T03:22:44.628Z,0.60
2019-03-05T03:25:17.974Z,0.90
2019-03-05T03:27:49.860Z,0.60
2019-03-05T03:30:22.112Z,0.70
2019-03-05T03:32:52.458Z,0.80
2019-03-05T03:35:24.275Z,0.60
2019-03-05T03:37:56.056Z,1.02
2019-03-05T03:40:26.238Z,0.70
2019-03-05T03:42:57.222Z,0.70
2019-03-05T03:45:27.492Z,0.80
2019-03-05T03:47:58.654Z,0.90
2019-03-05T03:50:28.562Z,0.60
2019-03-05T03:52:58.456Z,0.90
2019-03-05T03:55:28.568Z,1.30
2019-03-05T03:58:00.452Z,0.70
2019-03-05T04:00:31.476Z,0.80
2019-03-05T04:03:02.303Z,1.10
2019-03-05T04:05:35.210Z,0.80
2019-03-05T04:08:05.143Z,0.70
2019-03-05T04:10:34.856Z,0.78
2019-03-05T04:13:04.604Z,1.45
2019-03-05T04:15:34.429Z,0.80
2019-03-05T04:18:04.274Z,0.72
2019-03-05T04:20:41.809Z,0.80
2019-03-05T04:23:12.449Z,0.65
2019-03-05T04:25:42.501Z,0.90
2019-03-05T04:28:13.276Z,1.17
2019-03-05T04:30:42.978Z,1.27
2019-03-05T04:33:15.355Z,0.72
2019-03-05T04:35:45.067Z,0.80
2019-03-05T04:38:20.707Z,0.70
2019-03-05T04:40:51.339Z,0.80
2019-03-05T04:43:23.327Z,0.70
2019-03-05T04:45:58.479Z,1.00
2019-03-05T04:48:30.427Z,1.10
2019-03-05T04:51:05.880Z,0.90
2019-03-05T04:53:38.635Z,1.00
2019-03-05T04:56:08.743Z,0.90
2019-03-05T04:58:40.788Z,0.90
2019-03-05T05:01:10.712Z,0.70
2019-03-05T05:03:48.676Z,0.75
2019-03-05T05:06:18.535Z,0.65
2019-03-05T05:08:48.356Z,1.52
2019-03-05T05:11:22.651Z,0.60
2019-03-05T05:13:52.359Z,2.25
2019-03-05T05:16:22.995Z,1.00
2019-03-05T05:19:01.610Z,1.10
2019-03-05T05:21:38.548Z,1.00
2019-03-05T05:24:08.676Z,0.93
2019-03-05T05:26:38.786Z,1.27
2019-03-05T05:29:08.876Z,1.02
2019-03-05T05:31:38.727Z,0.80
2019-03-05T05:34:08.703Z,0.62
2019-03-05T05:36:38.808Z,1.00
2019-03-05T05:39:46.568Z,1.00
2019-03-05T05:42:16.411Z,1.25
2019-03-05T05:44:46.382Z,0.90
2019-03-05T05:47:16.480Z,0.82
2019-03-05T05:49:48.553Z,0.98
2019-03-05T05:52:18.375Z,0.68
2019-03-05T05:54:57.379Z,0.70
2019-03-05T05:57:35.940Z,1.30
2019-03-05T06:00:08.671Z,0.75
2019-03-05T06:02:39.695Z,1.00
2019-03-05T06:05:11.185Z,0.72
2019-03-05T06:07:41.287Z,0.75
2019-03-05T06:10:20.708Z,1.02
2019-03-05T06:12:50.832Z,1.05
2019-03-05T06:15:21.881Z,0.85
2019-03-05T06:17:57.982Z,1.15
2019-03-05T06:20:28.059Z,1.25
2019-03-05T06:22:58.148Z,1.30
2019-03-05T06:25:34.051Z,0.75
2019-03-05T06:28:03.943Z,0.80
2019-03-05T06:30:41.267Z,0.90
2019-03-05T06:33:11.415Z,0.60
2019-03-05T06:35:44.540Z,0.70
2019-03-05T06:38:14.635Z,0.80
2019-03-05T06:40:45.696Z,1.00
2019-03-05T06:43:21.348Z,1.15
2019-03-05T06:45:53.171Z,0.98
2019-03-05T06:48:23.187Z,0.98
2019-03-05T06:51:03.294Z,0.70
2019-03-05T06:53:33.401Z,0.60
2019-03-05T06:56:03.230Z,1.27
2019-03-05T06:58:35.190Z,1.00
2019-03-05T07:01:11.811Z,0.70
2019-03-05T07:03:44.923Z,0.75
2019-03-05T07:06:56.392Z,0.90
2019-03-05T07:09:36.367Z,0.93
2019-03-05T07:12:21.412Z,1.10
2019-03-05T07:15:18.362Z,0.85
2019-03-05T07:18:12.433Z,0.88
2019-03-05T07:21:01.802Z,1.00
2019-03-05T07:23:55.143Z,0.82
2019-03-05T07:26:27.251Z,1.00
2019-03-05T07:28:58.295Z,0.80
2019-03-05T07:31:28.129Z,0.70
2019-03-05T07:34:00.080Z,1.10
2019-03-05T07:36:30.855Z,1.07
2019-03-05T07:39:02.629Z,1.37
2019-03-05T07:41:32.585Z,0.70
2019-03-05T07:44:02.679Z,1.02
2019-03-05T07:46:32.794Z,0.77
2019-03-05T07:49:02.631Z,0.70
2019-03-05T07:51:32.584Z,0.95
2019-03-05T07:54:02.691Z,0.93
2019-03-05T07:56:33.809Z,0.80
2019-03-05T07:59:03.630Z,0.60
2019-03-05T08:01:33.319Z,0.83
2019-03-05T08:04:02.992Z,0.93
2019-03-05T08:06:32.930Z,0.80
2019-03-05T08:09:34.094Z,0.90
2019-03-05T08:12:16.223Z,0.73
2019-03-05T08:15:15.672Z,1.72
2019-03-05T08:17:51.566Z,1.25
2019-03-05T08:20:22.592Z,1.07
2019-03-05T08:22:52.411Z,0.70
2019-03-05T08:25:28.362Z,1.00
2019-03-05T08:28:18.565Z,1.00
2019-03-05T08:30:49.383Z,0.60
2019-03-05T08:33:19.075Z,0.80
2019-03-05T08:35:55.080Z,0.70
2019-03-05T08:38:25.195Z,1.10
2019-03-05T08:40:58.372Z,0.60
2019-03-05T08:43:28.460Z,0.73
2019-03-05T08:45:58.827Z,0.70
2019-03-05T08:48:31.651Z,0.63
2019-03-05T08:51:01.359Z,0.87
2019-03-05T08:53:31.379Z,0.67
2019-03-05T08:56:02.203Z,0.83
2019-03-05T08:58:39.891Z,0.80
2019-03-05T09:01:10.009Z,0.60
2019-03-05T09:03:41.047Z,1.10
2019-03-05T09:06:10.939Z,0.73
2019-03-05T09:08:46.986Z,0.80
2019-03-05T09:11:17.164Z,0.60
2019-03-05T09:13:47.325Z,0.80
2019-03-05T09:16:17.163Z,0.93
2019-03-05T09:18:48.846Z,0.80
2019-03-05T09:21:18.807Z,0.90
2019-03-05T09:23:48.896Z,0.87
2019-03-05T09:26:23.127Z,0.90
2019-03-05T09:28:53.939Z,1.27
2019-03-05T09:31:23.887Z,1.00
2019-03-05T09:33:56.743Z,1.00
2019-03-05T09:36:28.759Z,0.80
2019-03-05T09:39:03.136Z,0.80
2019-03-05T09:41:35.637Z,0.80
2019-03-05T09:44:08.551Z,0.70
2019-03-05T09:46:38.235Z,0.80
2019-03-05T09:49:11.195Z,0.87
2019-03-05T09:51:41.011Z,0.60
2019-03-05T09:54:10.968Z,0.80
2019-03-05T09:56:41.061Z,0.80
2019-03-05T09:59:12.879Z,1.20
2019-03-05T10:01:42.820Z,0.70
2019-03-05T10:04:12.996Z,0.90
2019-03-05T10:06:43.715Z,0.80
2019-03-05T10:09:13.759Z,1.43
2019-03-05T10:11:44.823Z,1.00
2019-03-05T10:14:14.923Z,0.60
2019-03-05T10:16:50.988Z,0.80
2019-03-05T10:19:20.821Z,1.40
2019-03-05T10:21:52.767Z,0.80
2019-03-05T10:24:22.852Z,1.00
2019-03-05T10:26:52.755Z,0.87
2019-03-05T10:29:23.676Z,0.60
2019-03-05T10:31:53.521Z,0.60
2019-03-05T10:34:23.804Z,0.70
2019-03-05T10:36:53.951Z,0.97
2019-03-05T10:39:30.391Z,1.03
2019-03-05T10:41:57.231Z,0.63
2019-03-05T10:44:27.323Z,1.07
2019-03-05T10:46:58.530Z,0.70
2019-03-05T10:49:28.607Z,0.83
2019-03-05T10:52:00.196Z,0.70
2019-03-05T10:54:31.929Z,0.60
2019-03-05T10:57:02.167Z,0.73
2019-03-05T10:59:32.139Z,0.70
2019-03-05T11:02:01.959Z,0.60
2019-03-05T11:04:33.371Z,0.70
2019-03-05T11:07:09.292Z,0.60
2019-03-05T11:09:39.256Z,0.77
2019-03-05T11:12:10.315Z,0.50
2019-03-05T11:14:42.443Z,0.90
2019-03-05T11:17:12.303Z,0.80
2019-03-05T11:19:46.211Z,0.67
2019-03-05T11:22:19.387Z,0.63
2019-03-05T11:24:51.445Z,1.20
2019-03-05T11:27:27.171Z,6.20
2019-03-05T11:30:00.361Z,0.60
2019-03-05T11:32:30.363Z,0.70
2019-03-05T11:35:01.351Z,0.60
2019-03-05T11:37:35.483Z,0.90
2019-03-05T11:40:21.153Z,0.60
2019-03-05T11:42:46.795Z,0.57
2019-03-05T11:45:21.979Z,0.67
2019-03-05T11:47:51.884Z,0.60
2019-03-05T11:50:53.136Z,0.67
2019-03-05T11:53:25.541Z,1.10
2019-03-05T11:55:55.704Z,0.70
2019-03-05T11:58:25.793Z,0.60
2019-03-05T12:01:03.503Z,0.80
2019-03-05T12:03:34.606Z,0.70
2019-03-05T12:06:04.696Z,0.80
2019-03-05T12:08:38.956Z,0.80
2019-03-05T12:11:11.033Z,0.63
2019-03-05T12:13:40.900Z,0.60
2019-03-05T12:16:10.908Z,0.77
2019-03-05T12:18:47.023Z,0.60
2019-03-05T12:21:17.124Z,0.70
2019-03-05T12:23:50.365Z,0.70
2019-03-05T12:26:26.565Z,0.60
2019-03-05T12:28:56.891Z,0.50
2019-03-05T12:31:27.952Z,0.90
2019-03-05T12:33:58.049Z,0.60
2019-03-05T12:36:28.363Z,0.70
2019-03-05T12:39:01.393Z,0.87
2019-03-05T12:41:31.484Z,0.60
2019-03-05T12:44:01.350Z,0.73
2019-03-05T12:46:40.056Z,0.90
2019-03-05T12:49:10.027Z,0.60
2019-03-05T12:51:40.531Z,0.70
2019-03-05T12:54:10.628Z,0.70
2019-03-05T12:56:40.717Z,0.60
2019-03-05T12:59:10.787Z,0.60
2019-03-05T13:01:43.891Z,0.90
2019-03-05T13:04:16.012Z,0.63
2019-03-05T13:06:46.216Z,0.70
2019-03-05T13:09:19.504Z,0.93
2019-03-05T13:11:50.914Z,0.90
2019-03-05T13:14:21.067Z,0.73
2019-03-05T13:16:51.235Z,0.60
2019-03-05T13:19:28.364Z,0.80
2019-03-05T13:21:58.452Z,0.67
2019-03-05T13:24:29.247Z,0.67
2019-03-05T13:27:01.145Z,0.80
2019-03-05T13:29:33.215Z,0.50
2019-03-05T13:32:16.888Z,0.73
2019-03-05T13:34:44.807Z,0.83
2019-03-05T13:37:15.751Z,0.60
2019-03-05T13:39:46.467Z,0.60
2019-03-05T13:42:16.427Z,0.80
2019-03-05T13:44:46.533Z,0.50
2019-03-05T13:47:17.569Z,0.70
2019-03-05T13:50:25.427Z,0.80
2019-03-05T13:53:15.143Z,0.70
2019-03-05T13:56:17.257Z,0.80
2019-03-05T13:59:08.183Z,0.60
2019-03-05T14:01:52.439Z,0.60
2019-03-05T14:05:01.579Z,0.60
2019-03-05T14:08:04.382Z,0.78
2019-03-05T14:10:34.482Z,0.57
2019-03-05T14:13:04.727Z,0.80
2019-03-05T14:15:36.395Z,0.50
2019-03-05T14:18:07.418Z,1.03
2019-03-05T14:20:38.522Z,1.07
2019-03-05T14:23:08.628Z,0.70
2019-03-05T14:25:40.669Z,1.37
2019-03-05T14:28:10.800Z,0.70
2019-03-05T14:30:41.926Z,0.60
2019-03-05T14:33:12.114Z,0.88
2019-03-05T14:35:43.135Z,0.90
2019-03-05T14:38:13.291Z,0.70
2019-03-05T14:40:46.540Z,0.72
2019-03-05T14:43:16.755Z,0.70
2019-03-05T14:45:48.331Z,0.70
2019-03-05T14:48:18.440Z,1.00
2019-03-05T14:50:48.279Z,0.80
2019-03-05T14:53:17.980Z,0.90
2019-03-05T14:55:47.707Z,0.65
2019-03-05T14:58:17.750Z,0.60
2019-03-05T15:00:47.593Z,0.70
2019-03-05T15:03:26.623Z,0.75
2019-03-05T15:05:56.629Z,0.70
2019-03-05T15:08:26.533Z,0.77
2019-03-05T15:10:59.941Z,0.60
2019-03-05T15:13:30.058Z,3.10
2019-03-05T15:15:59.999Z,0.50
2019-03-05T15:18:38.097Z,0.90
2019-03-05T15:21:16.911Z,0.80
2019-03-05T15:23:47.180Z,1.20
2019-03-05T15:26:26.119Z,1.12
2019-03-05T15:28:56.808Z,0.95
2019-03-05T15:31:28.865Z,0.98
2019-03-05T15:33:58.695Z,1.20
2019-03-05T15:36:28.709Z,2.00
2019-03-05T15:38:59.898Z,1.40
2019-03-05T15:41:30.857Z,2.47
2019-03-05T15:44:00.759Z,1.47
2019-03-05T15:46:31.097Z,1.00
2019-03-05T15:49:00.947Z,2.05
2019-03-05T15:51:31.913Z,1.20
2019-03-05T15:54:07.776Z,2.12
2019-03-05T15:56:37.739Z,1.70
2019-03-05T15:59:08.818Z,2.58
2019-03-05T16:01:38.973Z,1.75
2019-03-05T16:04:09.043Z,0.85
2019-03-05T16:06:39.867Z,0.98
2019-03-05T16:09:15.975Z,2.47
2019-03-05T16:11:53.988Z,1.20
2019-03-05T16:14:29.595Z,0.70
2019-03-05T16:16:58.773Z,1.85
2019-03-05T16:19:28.616Z,1.05
2019-03-05T16:21:58.571Z,2.08
2019-03-05T16:24:33.923Z,2.50
2019-03-05T16:27:03.501Z,0.70
2019-03-05T16:29:34.716Z,0.90
2019-03-05T16:32:26.847Z,2.55
2019-03-05T16:35:01.071Z,0.80
2019-03-05T16:37:39.278Z,0.50
2019-03-05T16:40:12.057Z,1.10
2019-03-05T16:42:46.511Z,0.75
2019-03-05T16:45:17.996Z,0.60
2019-03-05T16:47:58.351Z,1.47
2019-03-05T16:50:36.033Z,1.12
2019-03-05T16:53:23.917Z,0.60
2019-03-05T16:55:55.653Z,0.80
2019-03-05T16:58:40.923Z,1.70
2019-03-05T17:01:24.318Z,1.90
2019-03-05T17:03:55.973Z,1.50
2019-03-05T17:06:28.455Z,0.62
2019-03-05T17:09:15.931Z,1.65
2019-03-05T17:11:57.750Z,1.00
2019-03-05T17:14:28.471Z,2.85
2019-03-05T17:16:58.183Z,1.90
2019-03-05T17:19:28.135Z,1.15
2019-03-05T17:21:59.327Z,0.80
2019-03-05T17:24:30.316Z,0.70
2019-03-05T17:27:00.143Z,0.60
2019-03-05T17:29:31.116Z,0.65
2019-03-05T17:32:00.968Z,0.90
2019-03-05T17:34:30.700Z,1.98
2019-03-05T17:37:02.091Z,1.50
2019-03-05T17:39:32.361Z,0.78
2019-03-05T17:42:05.624Z,0.90
2019-03-05T17:44:37.650Z,1.17
2019-03-05T17:47:07.750Z,0.70
2019-03-05T17:49:43.727Z,1.03
2019-03-05T17:52:14.770Z,0.60
2019-03-05T17:54:46.583Z,0.70
2019-03-05T17:57:16.927Z,1.05
2019-03-05T17:59:47.045Z,0.70
2019-03-05T18:02:16.883Z,0.70
2019-03-05T18:04:48.273Z,1.00
2019-03-05T18:07:18.366Z,0.80
2019-03-05T18:09:51.563Z,0.90
2019-03-05T18:12:21.905Z,1.42
2019-03-05T18:14:55.014Z,0.98
2019-03-05T18:17:25.855Z,0.85
2019-03-05T18:19:55.551Z,1.50
2019-03-05T18:22:25.291Z,2.05
2019-03-05T18:24:54.995Z,7.85
2019-03-05T18:27:28.094Z,3.53
2019-03-05T18:29:59.837Z,7.42
2019-03-05T18:32:32.476Z,1.90
2019-03-05T18:35:06.491Z,1.65
2019-03-05T18:37:36.472Z,1.52
2019-03-05T18:40:20.575Z,1.27
2019-03-05T18:42:50.756Z,0.90
2019-03-05T18:45:29.187Z,0.93
2019-03-05T18:48:01.967Z,0.90
2019-03-05T18:50:32.996Z,1.35
2019-03-05T18:53:06.385Z,0.90
2019-03-05T18:55:42.325Z,1.20
2019-03-05T18:58:14.440Z,1.00
2019-03-05T19:00:44.264Z,1.95
2019-03-05T19:03:16.363Z,1.70
2019-03-05T19:05:48.759Z,2.02
2019-03-05T19:08:24.909Z,4.35
2019-03-05T19:10:56.029Z,2.02
2019-03-05T19:13:28.121Z,1.65
2019-03-05T19:15:58.945Z,1.20
2019-03-05T19:18:29.487Z,2.12
2019-03-05T19:21:00.203Z,1.82
2019-03-05T19:23:32.452Z,1.82
2019-03-05T19:26:06.571Z,1.60
2019-03-05T19:28:36.751Z,1.50
2019-03-05T19:31:07.948Z,1.90
2019-03-05T19:33:40.556Z,1.42
2019-03-05T19:36:11.640Z,1.80
2019-03-05T19:38:45.410Z,1.92
2019-03-05T19:41:16.695Z,1.60
2019-03-05T19:43:47.007Z,1.60
2019-03-05T19:46:23.009Z,2.12
2019-03-05T19:48:53.132Z,1.90
2019-03-05T19:51:30.032Z,2.00
2019-03-05T19:54:05.139Z,2.35
2019-03-05T19:56:36.328Z,1.65
2019-03-05T19:59:10.101Z,2.22
2019-03-05T20:01:41.496Z,1.82
2019-03-05T20:04:12.081Z,1.75
2019-03-05T20:06:44.032Z,2.17
2019-03-05T20:09:17.539Z,2.27
2019-03-05T20:11:53.527Z,2.27
2019-03-05T20:14:24.023Z,1.87
2019-03-05T20:16:56.507Z,2.90
2019-03-05T20:19:26.251Z,2.45
2019-03-05T20:21:56.067Z,2.47
2019-03-05T20:24:25.859Z,2.52
2019-03-05T20:26:55.779Z,2.90
2019-03-05T20:29:27.591Z,2.02
2019-03-05T20:31:57.632Z,2.27
2019-03-05T20:34:35.211Z,2.70
2019-03-05T20:37:05.195Z,2.40
2019-03-05T20:39:34.891Z,2.72
2019-03-05T20:42:06.587Z,2.70
2019-03-05T20:44:37.295Z,2.40
2019-03-05T20:47:08.248Z,2.47
2019-03-05T20:49:39.066Z,2.87
2019-03-05T20:52:32.927Z,2.40
2019-03-05T20:55:14.958Z,2.15
2019-03-05T20:57:45.039Z,2.67
2019-03-05T21:00:32.648Z,3.17
2019-03-05T21:03:07.667Z,2.87
2019-03-05T21:05:48.948Z,2.98
2019-03-05T21:08:20.976Z,2.75
2019-03-05T21:10:51.480Z,3.58
2019-03-05T21:13:21.615Z,3.15
2019-03-05T21:15:57.017Z,3.45
2019-03-05T21:18:26.847Z,3.58
2019-03-05T21:20:56.832Z,4.00
2019-03-05T21:23:31.171Z,3.40
2019-03-05T21:26:00.858Z,3.40
2019-03-05T21:28:32.141Z,3.90
2019-03-05T21:31:01.907Z,3.90
2019-03-05T21:33:32.846Z,3.47
2019-03-05T21:36:10.551Z,4.22
2019-03-05T21:38:41.585Z,4.15
2019-03-05T21:41:11.681Z,4.37
2019-03-05T21:43:41.770Z,4.00
2019-03-05T21:46:16.015Z,4.80
2019-03-05T21:48:45.728Z,3.77
2019-03-05T21:51:16.715Z,4.40
2019-03-05T21:53:48.803Z,4.22
2019-03-05T21:56:20.918Z,4.33
2019-03-05T21:58:52.039Z,4.28
2019-03-05T22:01:21.895Z,4.80
2019-03-05T22:03:52.989Z,4.70
2019-03-05T22:06:23.105Z,4.47
2019-03-05T22:08:53.275Z,4.35
2019-03-05T22:11:24.333Z,5.12
2019-03-05T22:13:54.190Z,5.25
2019-03-05T22:16:30.053Z,4.03
2019-03-05T22:19:04.552Z,4.70
2019-03-05T22:21:34.679Z,4.03
2019-03-05T22:24:08.765Z,5.17
2019-03-05T22:26:41.791Z,4.55
2019-03-05T22:29:11.643Z,5.20
2019-03-05T22:31:41.621Z,4.85
2019-03-05T22:34:12.731Z,5.12
2019-03-05T22:36:44.476Z,5.35
2019-03-05T22:39:15.599Z,5.28
2019-03-05T22:41:46.690Z,4.83
2019-03-05T22:44:16.532Z,5.35
2019-03-05T22:46:55.748Z,7.20
2019-03-05T22:49:27.777Z,5.62
2019-03-05T22:51:58.808Z,6.90
2019-03-05T22:54:34.319Z,7.33
2019-03-05T22:57:04.336Z,6.28
2019-03-05T22:59:44.460Z,7.00
2019-03-05T23:02:14.355Z,7.42
2019-03-05T23:04:49.427Z,6.78
2019-03-05T23:07:20.187Z,6.47
2019-03-05T23:09:52.000Z,6.78
2019-03-05T23:12:34.699Z,7.05
2019-03-05T23:15:09.258Z,5.92
2019-03-05T23:17:39.385Z,6.75
2019-03-05T23:20:18.197Z,7.12
2019-03-05T23:22:54.348Z,6.55
2019-03-05T23:25:27.719Z,6.42
2019-03-05T23:28:04.555Z,6.72
2019-03-05T23:30:38.753Z,6.65
2019-03-05T23:33:21.247Z,7.33
2019-03-05T23:35:51.399Z,6.60
2019-03-05T23:38:31.157Z,7.05
2019-03-05T23:41:01.398Z,7.28
2019-03-05T23:43:31.639Z,6.85
2019-03-05T23:46:02.915Z,6.80
2019-03-05T23:48:32.975Z,7.10
2019-03-05T23:51:04.332Z,7.03
2019-03-05T23:53:35.179Z,6.50
2019-03-05T23:56:05.129Z,8.30
2019-03-05T23:58:41.688Z,7.60
